Latest Weather Observations for Jabiru

IDD60801

Issued at 10:01 pm CST Monday 2 May 2016 (issued every 30 minutes, with the page automatically refreshed every 10 minutes)

About weather observations | Map of weather stations | Latest weather observations for NT | Other Formats
Station Details ID: 014198 Name: JABIRU AIRPORT Lat: -12.66 Lon: 132.89 Height: 26.5 m
Data from the previous 72 hours. | See also: Recent months at Jabiru
Date/Time
CST
Temp
°C
App
Temp
°C
Dew
Point
Rel
Hum
%
Delta-T
°C
Wind Press
QNH
hPa
Press
MSL
hPa
Rain
since 9 am
mm
Dir
 
Spd
km/h
Gust
km/h
Spd
kts
Gust
kts
02/10:00pm 25.8 29.4 23.1 85 1.8 E 9 15 5 8 1013.9 1013.7 0.2
02/09:30pm 25.7 29.0 23.2 86 1.7 E 11 15 6 8 1013.6 1013.4 0.2
02/09:00pm 26.2 30.3 23.3 84 2.0 ESE 7 13 4 7 1013.7 1013.5 0.2
02/08:30pm 25.8 29.7 22.5 82 2.2 SSE 6 9 3 5 1013.5 1013.3 0.2
02/08:00pm 25.8 28.2 22.3 81 2.4 ESE 13 22 7 12 1012.7 1012.5 0.2
02/07:30pm 26.3 27.9 22.2 78 2.8 ESE 17 26 9 14 1012.3 1012.1 0.2
02/07:02pm 28.1 27.0 21.1 65 4.7 E 28 46 15 25 1011.8 1011.6 0.2
02/07:00pm 28.1 26.3 21.1 65 4.7 E 32 46 17 25 1011.8 1011.6 0.2
02/06:50pm 30.1 32.2 21.7 60 5.7 NE 13 39 7 21 1011.5 1011.3 0.2
02/06:30pm 30.9 34.5 23.0 62 5.4 NNE 9 13 5 7 1010.8 1010.6 0.2
02/06:00pm 31.6 34.3 22.9 60 6.0 N 13 19 7 10 1010.2 1010.0 0.2
02/05:30pm 32.2 35.3 22.9 58 6.4 N 11 17 6 9 1009.6 1009.4 0.2
02/05:00pm 33.0 35.7 22.1 52 7.4 NE 11 17 6 9 1008.9 1008.7 0.2
02/04:30pm 33.9 35.6 21.7 49 8.3 NNE 15 22 8 12 1008.6 1008.4 0.2
02/04:00pm 34.3 36.4 22.4 50 8.2 NNE 15 19 8 10 1008.5 1008.3 0.2
02/03:30pm 34.0 36.2 21.8 49 8.3 NE 13 20 7 11 1008.8 1008.6 0.2
02/03:00pm 34.2 35.1 21.6 47 8.6 ENE 19 26 10 14 1009.1 1008.9 0.2
02/02:30pm 33.3 34.6 22.4 52 7.5 ENE 19 24 10 13 1009.5 1009.3 0.2
02/02:00pm 34.2 35.6 22.9 51 7.8 NE 20 30 11 16 1009.6 1009.4 0.2
02/01:30pm 33.8 35.8 22.9 53 7.5 NNE 17 24 9 13 1010.0 1009.8 0.2
02/01:00pm 33.3 34.6 22.7 53 7.3 NE 20 28 11 15 1010.7 1010.5 0.2
02/12:30pm 32.6 34.9 23.5 58 6.3 NE 17 24 9 13 1011.4 1011.2 0.2
02/12:00pm 32.3 33.9 23.3 59 6.2 NE 20 30 11 16 1011.6 1011.4 0.2
02/11:30am 31.5 34.1 23.3 61 5.7 NE 15 26 8 14 1011.9 1011.7 0.2
02/11:00am 31.6 33.3 23.4 61 5.7 ENE 20 32 11 17 1012.5 1012.3 0.2
02/10:30am 30.7 33.3 23.9 67 4.7 ENE 17 26 9 14 1012.6 1012.4 0.2
02/10:00am 30.3 32.9 24.0 69 4.4 ENE 17 22 9 12 1012.7 1012.5 0.0
02/09:30am 29.5 32.7 24.4 74 3.6 ENE 15 24 8 13 1012.6 1012.4 0.0
02/09:00am 28.5 33.3 24.5 79 2.8 E 7 13 4 7 1012.6 1012.4 5.8
02/08:30am 27.8 31.8 23.8 79 2.8 E 9 11 5 6 1012.4 1012.2 5.8
02/08:00am 27.2 31.3 23.9 82 2.3 E 9 13 5 7 1012.0 1011.8 5.8
02/07:30am 26.8 30.6 24.1 85 1.9 ENE 11 13 6 7 1011.6 1011.4 5.8
02/07:00am 26.2 30.7 23.9 87 1.6 ESE 7 11 4 6 1011.2 1011.0 5.8
02/06:30am 26.1 30.6 24.0 88 1.4 ENE 7 11 4 6 1010.9 1010.7 5.8
02/06:00am 26.1 31.8 23.8 87 1.6 CALM 0 0 0 0 1010.8 1010.6 5.8
02/05:30am 26.1 30.4 23.6 86 1.7 E 7 9 4 5 1010.4 1010.2 5.8
02/05:00am 26.5 30.0 23.6 84 2.0 ESE 11 19 6 10 1010.0 1009.8 5.8
02/04:30am 26.3 30.2 23.6 85 1.9 ESE 9 15 5 8 1010.1 1009.9 5.8
02/04:00am 26.4 30.5 23.3 83 2.1 E 7 11 4 6 1010.1 1009.9 5.8
02/03:30am 26.7 29.8 23.6 83 2.1 E 13 17 7 9 1010.0 1009.8 5.8
02/03:00am 26.5 30.6 24.0 86 1.7 E 9 13 5 7 1009.9 1009.7 5.8
02/02:30am 26.6 30.8 24.1 86 1.7 E 9 13 5 7 1010.0 1009.8 5.8
02/02:00am 26.5 31.1 24.2 87 1.6 E 7 11 4 6 1010.2 1010.0 5.8
02/01:30am 26.6 31.4 24.4 88 1.5 ESE 7 9 4 5 1010.5 1010.3 5.8
02/01:00am 26.8 31.7 24.6 88 1.5 ESE 7 9 4 5 1010.9 1010.7 5.8
02/12:30am 26.7 31.8 24.7 89 1.4 ESE 6 7 3 4 1011.4 1011.2 5.8
02/12:00am 26.5 31.6 24.9 91 1.1 ESE 7 11 4 6 1011.5 1011.3 5.8
 
Date/Time
CST
Temp
°C
App
Temp
°C
Dew
Point
Rel
Hum
%
Delta-T
°C
Wind Press
QNH
hPa
Press
MSL
hPa
Rain
since 9 am
mm
Dir
 
Spd
km/h
Gust
km/h
Spd
kts
Gust
kts
01/11:30pm 26.7 31.6 24.7 89 1.4 ESE 7 9 4 5 1011.6 1011.4 5.8
01/11:00pm 26.7 31.6 24.7 89 1.4 ESE 7 11 4 6 1011.7 1011.5 5.8
01/10:30pm 26.9 33.4 25.1 90 1.3 CALM 0 7 0 4 1012.0 1011.8 5.8
01/10:00pm 26.7 32.2 24.7 89 1.4 S 4 7 2 4 1012.4 1012.2 5.8
01/09:30pm 26.6 31.5 24.4 88 1.5 SSE 6 9 3 5 1012.3 1012.1 5.8
01/09:00pm 26.6 32.7 24.4 88 1.5 CALM 0 0 0 0 1012.1 1011.9 5.8
01/08:30pm 26.5 32.4 24.7 90 1.3 SSE 2 6 1 3 1012.2 1012.0 5.8
01/08:00pm 26.2 30.7 24.6 91 1.1 ENE 9 11 5 6 1012.0 1011.8 5.8
01/07:30pm 26.0 30.8 24.4 91 1.1 E 7 11 4 6 1011.5 1011.3 5.8
01/07:00pm 25.6 29.6 23.8 90 1.2 SE 9 13 5 7 1011.3 1011.1 5.8
01/06:30pm 25.6 25.1 23.5 88 1.4 ENE 32 50 17 27 1011.3 1011.1 4.2
01/06:25pm 26.5 26.8 23.6 84 2.0 ENE 28 50 15 27 1011.1 1010.9 1.4
01/06:00pm 28.9 31.0 23.1 71 4.0 ENE 17 22 9 12 1010.1 1009.9 0.6
01/05:30pm 30.1 30.7 22.8 65 5.0 E 24 37 13 20 1009.5 1009.3 0.6
01/05:06pm 31.6 31.0 22.0 56 6.5 E 28 46 15 25 1008.9 1008.7 0.6
01/05:00pm 33.3 34.9 22.1 52 7.6 ESE 17 28 9 15 1008.5 1008.3 0.6
01/04:30pm 34.3 36.9 22.7 50 8.0 ESE 13 19 7 10 1007.8 1007.7 0.6
01/04:00pm 32.8 36.4 23.7 58 6.3 E 11 15 6 8 1007.8 1007.7 0.6
01/03:30pm 33.2 35.9 23.5 56 6.8 ESE 15 26 8 14 1008.1 1007.9 0.6
01/03:00pm 34.9 36.9 21.6 46 9.1 E 13 17 7 9 1007.9 1007.8 0.0
01/02:30pm 36.0 38.5 22.5 45 9.3 E 13 20 7 11 1008.3 1008.1 0.0
01/02:00pm 35.4 36.1 21.6 44 9.4 E 20 30 11 16 1008.8 1008.6 0.0
01/01:30pm 35.1 36.1 21.7 45 9.2 E 19 33 10 18 1009.3 1009.1 0.0
01/01:00pm 34.3 36.0 22.4 50 8.2 ESE 17 28 9 15 1009.9 1009.7 0.0
01/12:30pm 33.9 35.0 22.0 49 8.1 E 19 28 10 15 1010.4 1010.2 0.0
01/12:00pm 33.4 34.8 22.8 53 7.3 ENE 20 28 11 15 1010.7 1010.5 0.0
01/11:30am 32.1 34.6 22.5 57 6.6 SE 13 19 7 10 1011.0 1010.8 0.0
01/11:00am 31.5 33.2 23.1 61 5.8 E 19 26 10 14 1011.6 1011.4 0.0
01/10:30am 31.5 33.7 23.3 61 5.7 E 17 26 9 14 1012.1 1011.9 0.0
01/10:00am 30.4 32.3 22.8 64 5.2 E 17 28 9 15 1012.3 1012.1 0.0
01/09:30am 29.7 32.1 22.9 67 4.7 E 15 20 8 11 1012.0 1011.8 0.0
01/09:00am 29.0 32.7 23.2 71 4.0 E 9 15 5 8 1012.0 1011.8 8.0
01/08:30am 28.7 31.9 23.1 71 3.8 E 11 15 6 8 1011.8 1011.6 8.0
01/08:00am 28.2 32.1 23.6 76 3.2 ESE 9 13 5 7 1011.6 1011.4 8.0
01/07:30am 27.2 31.7 23.7 81 2.4 ESE 6 7 3 4 1011.7 1011.5 8.0
01/07:00am 26.7 30.9 23.4 82 2.3 ESE 7 11 4 6 1011.8 1011.6 8.0
01/06:30am 26.6 31.3 23.3 82 2.3 SE 4 6 2 3 1011.7 1011.5 8.0
01/06:00am 26.7 30.9 23.4 82 2.3 ESE 7 9 4 5 1011.4 1011.2 8.0
01/05:30am 26.8 31.2 23.5 82 2.3 SE 6 9 3 5 1011.3 1011.1 8.0
01/05:00am 26.8 32.4 23.5 82 2.3 CALM 0 0 0 0 1010.7 1010.5 8.0
01/04:30am 27.2 32.6 23.9 82 2.3 ESE 2 6 1 3 1010.5 1010.3 8.0
01/04:00am 27.2 31.4 23.4 80 2.6 ESE 7 11 4 6 1010.2 1010.0 8.0
01/03:30am 26.9 32.5 23.6 82 2.3 CALM 0 6 0 3 1010.1 1009.9 8.0
01/03:00am 27.0 30.8 23.5 81 2.4 E 9 11 5 6 1010.0 1009.8 8.0
01/02:30am 27.3 31.3 23.7 81 2.5 ENE 9 13 5 7 1010.2 1010.0 8.0
01/02:00am 27.4 31.8 23.8 81 2.5 NE 7 9 4 5 1010.7 1010.5 8.0
01/01:30am 27.6 32.0 23.4 78 2.9 E 6 7 3 4 1010.7 1010.5 8.0
01/01:00am 27.7 32.4 23.9 80 2.6 E 6 7 3 4 1011.0 1010.8 8.0
01/12:30am 27.7 32.2 23.9 80 2.6 ESE 7 9 4 5 1011.2 1011.0 8.0
01/12:00am 27.5 32.1 24.1 82 2.4 SE 7 9 4 5 1011.5 1011.3 8.0
 
Date/Time
CST
Temp
°C
App
Temp
°C
Dew
Point
Rel
Hum
%
Delta-T
°C
Wind Press
QNH
hPa
Press
MSL
hPa
Rain
since 9 am
mm
Dir
 
Spd
km/h
Gust
km/h
Spd
kts
Gust
kts
30/11:30pm 27.2 31.8 24.1 83 2.1 ESE 7 11 4 6 1011.7 1011.5 8.0
30/11:00pm 27.6 32.1 24.0 81 2.5 E 7 11 4 6 1011.9 1011.7 8.0
30/10:30pm 27.4 32.1 24.3 83 2.1 E 7 9 4 5 1011.9 1011.7 8.0
30/10:00pm 27.6 32.1 24.0 81 2.5 E 7 9 4 5 1011.8 1011.6 8.0
30/09:30pm 27.8 33.1 25.0 85 2.0 E 6 9 3 5 1011.8 1011.6 8.0
30/09:00pm 27.7 32.3 24.7 84 2.1 ESE 9 11 5 6 1011.5 1011.3 8.0
30/08:30pm 27.5 32.6 24.6 84 2.0 ESE 6 9 3 5 1011.3 1011.1 8.0
30/08:00pm 27.4 32.4 24.8 86 1.8 E 7 11 4 6 1010.9 1010.7 8.0
30/07:30pm 27.6 31.7 24.6 84 2.1 E 11 19 6 10 1010.8 1010.6 7.6
30/07:00pm 28.1 33.1 24.5 81 2.5 WNW 6 11 3 6 1010.2 1010.0 6.8
30/06:30pm 28.1 32.5 24.5 81 2.5 N 9 13 5 7 1009.7 1009.5 6.8
30/06:00pm 27.8 32.6 24.2 81 2.5 SSE 6 11 3 6 1009.6 1009.4 6.8
30/05:30pm 30.3 34.2 24.2 70 4.3 SE 11 20 6 11 1008.9 1008.7 5.4
30/05:00pm 29.7 30.2 22.7 66 4.8 ENE 24 46 13 25 1008.4 1008.2 4.2
30/04:57pm 29.5 30.3 22.5 66 4.8 E 22 46 12 25 1008.3 1008.1 2.6
30/04:30pm 35.3 38.3 21.9 45 9.2 ENE 9 11 5 6 1007.5 1007.4 0.0
30/04:00pm 35.6 38.1 21.8 44 9.4 ENE 11 17 6 9 1007.4 1007.3 0.0
30/03:30pm 35.5 37.6 21.0 42 9.8 E 11 17 6 9 1007.8 1007.7 0.0
30/03:00pm 35.3 37.3 21.6 45 9.4 E 13 22 7 12 1008.3 1008.1 0.0
30/02:30pm 34.7 36.6 22.7 49 8.3 SE 17 24 9 13 1008.6 1008.4 0.0
30/02:00pm 35.2 37.2 21.5 45 9.3 NE 13 24 7 13 1008.9 1008.7 0.0
30/01:30pm 34.6 36.9 21.3 46 9.0 ESE 11 19 6 10 1009.4 1009.2 0.0
30/01:00pm 34.0 36.2 21.1 47 8.7 E 11 17 6 9 1010.1 1009.9 0.0
30/12:30pm 34.4 37.3 21.8 48 8.6 ESE 9 17 5 9 1010.8 1010.6 0.0
30/12:00pm 34.2 36.6 22.3 50 8.2 ESE 13 20 7 11 1011.4 1011.2 0.0
30/11:30am 32.9 34.1 21.4 50 7.8 E 17 26 9 14 1012.1 1011.9 0.0
30/11:00am 32.9 32.8 20.8 49 8.1 ENE 22 30 12 16 1012.4 1012.2 0.0
30/10:30am 31.8 34.9 22.2 56 6.5 ESE 9 13 5 7 1013.0 1012.8 0.0
30/10:00am 31.8 35.1 22.5 58 6.4 ESE 9 15 5 8 1013.2 1013.0 0.0
30/09:30am 30.7 34.3 22.0 59 5.9 SE 6 11 3 6 1013.4 1013.2 0.0
30/09:00am 29.1 33.9 22.8 69 4.3 ENE 2 6 1 3 1013.4 1013.2 0.0
30/08:30am 27.4 31.6 23.2 78 2.9 NNE 6 7 3 4 1013.3 1013.1 0.0
30/08:00am 27.2 32.7 23.4 80 2.6 CALM 0 0 0 0 1013.0 1012.8 0.0
30/07:30am 26.4 31.6 22.9 81 2.4 CALM 0 6 0 3 1012.8 1012.6 0.0
30/07:00am 25.6 29.5 22.9 85 1.8 SSW 7 9 4 5 1012.5 1012.3 0.0
30/06:30am 25.4 28.9 22.9 86 1.7 WSW 9 9 5 5 1012.1 1011.9 0.0
30/06:00am 26.1 31.4 23.0 83 2.1 CALM 0 0 0 0 1011.9 1011.7 0.0
30/05:30am 26.2 31.4 22.9 82 2.2 CALM 0 0 0 0 1011.8 1011.6 0.0
30/05:00am 26.1 31.3 22.8 82 2.2 CALM 0 0 0 0 1011.3 1011.1 0.0
30/04:30am 26.0 30.0 22.7 82 2.2 S 6 7 3 4 1011.1 1010.9 0.0
30/04:00am 26.5 31.9 23.2 82 2.2 CALM 0 0 0 0 1011.0 1010.8 0.0
30/03:30am 26.5 31.8 23.0 81 2.4 CALM 0 0 0 0 1010.9 1010.7 0.0
30/03:00am 27.2 32.5 23.0 78 2.9 CALM 0 0 0 0 1010.7 1010.5 0.0
30/02:30am 27.2 32.5 23.0 78 2.9 CALM 0 0 0 0 1010.8 1010.6 0.0
30/02:00am 27.1 31.1 22.7 77 3.0 SE 6 7 3 4 1011.0 1010.8 0.0
30/01:30am 26.9 30.9 22.7 78 2.8 ESE 6 9 3 5 1011.2 1011.0 0.0
30/01:00am 26.6 30.4 22.4 78 2.8 ESE 6 9 3 5 1011.4 1011.2 0.0
30/12:30am 26.9 29.5 21.9 74 3.4 ESE 11 19 6 10 1011.7 1011.5 0.0
30/12:00am 27.6 31.2 22.1 72 3.7 SSW 6 9 3 5 1011.6 1011.4 0.0
 
Date/Time
CST
Temp
°C
App
Temp
°C
Dew
Point
Rel
Hum
%
Delta-T
°C
Wind Press
QNH
hPa
Press
MSL
hPa
Rain
since 9 am
mm
Dir
 
Spd
km/h
Gust
km/h
Spd
kts
Gust
kts
29/11:30pm 28.1 31.4 21.9 69 4.2 SE 7 9 4 5 1011.8 1011.6 0.0
29/11:00pm 27.7 30.8 22.2 72 3.7 NNE 9 19 5 10 1012.3 1012.1 0.0
29/10:30pm 27.9 29.8 22.8 74 3.5 ENE 17 20 9 11 1012.7 1012.5 0.0

Other Formats:

Comma delimited format used in spreadsheet applications
http://www.bom.gov.au/fwo/IDD60801/IDD60801.94137.axf

JavaScript Object Notation format (JSON) in row-major order
http://www.bom.gov.au/fwo/IDD60801/IDD60801.94137.json